Time;durP1;ratioP1;P1;durP2;ratioP2;P2;SDS_P1;SDS_P2;PMS_P1;PMS_P2;Temp;Humidity;BMP_temperature;BMP_pressure;BME280_temperature;BME280_humidity;BME280_pressure;Samples;Min_cycle;Max_cycle;Signal;HPM_P1;HPM_P2
2022/08/23 00:01:41;;;;;;;8.70;4.50;;;21.20;62.50;;;;;;5115790;28;20028;-72
2022/08/23 00:04:17;;;;;;;8.20;4.13;;;21.20;62.30;;;;;;5115706;28;20024;-72
2022/08/23 00:06:44;;;;;;;7.68;4.38;;;21.10;62.70;;;;;;5114666;28;20155;-72
2022/08/23 00:09:10;;;;;;;9.27;4.20;;;21.00;62.60;;;;;;5115561;28;20024;-72
2022/08/23 00:11:46;;;;;;;6.57;4.07;;;21.00;62.60;;;;;;5115226;28;20055;-72
2022/08/23 00:14:26;;;;;;;8.35;4.10;;;20.90;62.30;;;;;;5115643;28;20026;-72
2022/08/23 00:16:53;;;;;;;8.35;4.03;;;21.00;62.40;;;;;;5114455;28;20020;-72
2022/08/23 00:19:21;;;;;;;6.95;4.25;;;21.00;62.60;;;;;;5115379;28;20023;-72
2022/08/23 00:21:47;;;;;;;7.50;4.70;;;20.90;62.10;;;;;;5115312;28;20076;-72
2022/08/23 00:24:15;;;;;;;8.43;4.10;;;21.00;62.40;;;;;;5115251;28;20081;-72
2022/08/23 00:26:48;;;;;;;8.32;4.80;;;21.00;62.00;;;;;;5115247;28;20028;-72
2022/08/23 00:29:14;;;;;;;8.10;4.38;;;20.80;62.30;;;;;;5115104;28;20035;-72
2022/08/23 00:31:40;;;;;;;7.95;4.22;;;20.80;62.10;;;;;;5114132;28;20091;-72
2022/08/23 00:34:05;;;;;;;8.88;4.65;;;20.80;62.00;;;;;;5115081;28;20024;-72
2022/08/23 00:36:31;;;;;;;11.23;5.13;;;20.80;62.10;;;;;;5114934;28;20036;-72
2022/08/23 00:38:57;;;;;;;9.73;5.10;;;20.80;62.40;;;;;;5114133;28;20080;-72
2022/08/23 00:41:22;;;;;;;8.35;4.75;;;20.70;63.10;;;;;;5115067;28;20515;-72
2022/08/23 00:49:30;;;;;;;9.57;4.47;;;20.60;62.70;;;;;;5115029;28;20042;-72
2022/08/23 00:52:07;;;;;;;8.55;4.32;;;20.60;62.60;;;;;;5114651;28;20054;-72
2022/08/23 00:54:36;;;;;;;8.05;4.93;;;20.60;62.20;;;;;;5114749;28;20048;-72
2022/08/23 00:57:09;;;;;;;8.18;4.45;;;20.60;62.20;;;;;;5114690;28;20024;-72
2022/08/23 00:59:35;;;;;;;8.02;4.63;;;20.60;62.20;;;;;;5114777;28;20024;-72
2022/08/23 01:02:01;;;;;;;7.78;4.32;;;20.50;63.20;;;;;;5114554;28;20111;-72
2022/08/23 01:04:31;;;;;;;6.93;4.40;;;20.40;63.20;;;;;;5114492;28;20025;-72
2022/08/23 01:07:03;;;;;;;9.73;4.97;;;20.40;63.50;;;;;;5114504;28;20016;-72
2022/08/23 01:09:29;;;;;;;5.95;4.40;;;20.40;63.70;;;;;;5114480;28;20028;-72
2022/08/23 01:12:07;;;;;;;8.70;4.85;;;20.40;64.00;;;;;;5114146;28;20063;-72
2022/08/23 01:14:43;;;;;;;7.03;4.40;;;20.50;63.50;;;;;;5114537;28;20031;-72
2022/08/23 01:17:19;;;;;;;8.27;5.03;;;20.60;62.60;;;;;;5113333;28;20475;-72
2022/08/23 01:19:53;;;;;;;8.75;5.22;;;20.40;63.10;;;;;;5114389;28;20020;-72
2022/08/23 01:22:57;;;;;;;7.32;4.90;;;20.40;63.50;;;;;;5114255;28;20028;-72
2022/08/23 01:25:26;;;;;;;9.05;4.93;;;20.40;63.70;;;;;;5090646;28;20058;-72
2022/08/23 01:27:51;;;;;;;7.43;5.45;;;20.30;63.40;;;;;;5114008;28;20024;-72
2022/08/23 01:30:21;;;;;;;9.18;5.30;;;20.40;63.70;;;;;;5114068;28;20031;-72
2022/08/23 01:32:51;;;;;;;10.23;6.03;;;20.40;63.70;;;;;;5112884;28;20034;-72
2022/08/23 01:35:18;;;;;;;7.72;5.80;;;20.30;64.30;;;;;;5112984;28;20047;-72
2022/08/23 01:37:44;;;;;;;9.00;6.03;;;20.20;63.80;;;;;;5113903;28;20020;-72
2022/08/23 01:40:10;;;;;;;9.48;6.38;;;20.10;64.30;;;;;;5113867;28;20039;-72
2022/08/23 01:42:40;;;;;;;12.23;6.05;;;20.00;64.90;;;;;;5095985;28;20020;-72
2022/08/23 01:45:09;;;;;;;9.70;6.55;;;20.00;64.80;;;;;;5113799;28;20028;-72
2022/08/23 01:47:34;;;;;;;9.93;6.93;;;19.90;65.30;;;;;;5113205;28;20046;-72
2022/08/23 01:50:00;;;;;;;9.80;7.05;;;19.90;65.00;;;;;;5113753;28;20016;-72
2022/08/23 01:52:26;;;;;;;10.30;7.65;;;20.00;65.20;;;;;;5112745;28;20032;-72
2022/08/23 01:54:52;;;;;;;10.95;7.13;;;20.10;66.00;;;;;;5113827;28;20031;-72
2022/08/23 01:57:18;;;;;;;9.32;6.60;;;20.10;65.30;;;;;;5113650;28;20028;-72
2022/08/23 01:59:43;;;;;;;12.00;7.72;;;20.20;65.10;;;;;;5112658;28;20039;-72
2022/08/23 02:02:09;;;;;;;10.18;7.55;;;20.20;65.00;;;;;;5113555;28;20091;-72
2022/08/23 02:04:35;;;;;;;11.48;8.07;;;20.20;65.00;;;;;;5113544;28;20032;-72
2022/08/23 02:07:00;;;;;;;10.60;6.85;;;20.10;64.90;;;;;;5112800;28;20028;-72
2022/08/23 02:09:26;;;;;;;10.38;6.88;;;20.00;65.10;;;;;;5113502;28;20024;-72
2022/08/23 02:11:51;;;;;;;9.45;7.40;;;19.90;64.70;;;;;;5112236;28;20052;-72
2022/08/23 02:14:19;;;;;;;12.93;7.45;;;19.80;64.80;;;;;;5113475;28;20058;-72
2022/08/23 02:16:48;;;;;;;10.93;6.95;;;19.80;65.30;;;;;;5113558;28;20076;-72
2022/08/23 02:19:15;;;;;;;12.00;7.32;;;19.70;65.80;;;;;;5113400;28;20040;-72
2022/08/23 02:21:41;;;;;;;9.55;7.00;;;19.70;66.10;;;;;;5113427;28;20028;-72
2022/08/23 02:24:11;;;;;;;10.93;7.25;;;19.80;66.20;;;;;;5113385;28;20036;-72
2022/08/23 02:26:39;;;;;;;11.90;7.22;;;19.90;65.90;;;;;;5113337;28;20032;-72
2022/08/23 02:29:05;;;;;;;12.32;7.35;;;19.80;65.40;;;;;;5113250;28;20050;-72
2022/08/23 02:31:32;;;;;;;14.30;8.50;;;19.70;65.40;;;;;;5113234;28;20032;-72
2022/08/23 02:33:57;;;;;;;10.40;8.02;;;19.60;65.80;;;;;;5113301;28;20024;-72
2022/08/23 02:36:23;;;;;;;12.13;7.75;;;19.60;66.40;;;;;;5112245;28;20392;-72
2022/08/23 02:38:48;;;;;;;14.32;7.97;;;19.50;66.50;;;;;;5113244;28;20028;-72
2022/08/23 02:41:16;;;;;;;11.45;7.78;;;19.50;66.50;;;;;;5112306;28;20039;-72
2022/08/23 02:43:42;;;;;;;10.23;7.72;;;19.60;66.90;;;;;;5113230;28;20017;-72
2022/08/23 02:46:08;;;;;;;10.07;7.40;;;19.50;67.30;;;;;;5113164;28;20024;-72
2022/08/23 02:48:35;;;;;;;11.43;8.30;;;19.50;67.40;;;;;;5113183;28;20561;-72
2022/08/23 02:51:06;;;;;;;8.68;7.47;;;19.40;66.90;;;;;;5113035;28;20027;-72
2022/08/23 02:53:32;;;;;;;11.35;8.43;;;19.30;67.30;;;;;;5113175;28;20023;-72
2022/08/23 02:55:59;;;;;;;12.75;7.93;;;19.40;67.40;;;;;;5112066;28;20088;-72
2022/08/23 02:58:25;;;;;;;10.75;7.63;;;19.30;67.20;;;;;;5113061;28;20084;-72
2022/08/23 03:00:51;;;;;;;13.65;8.63;;;19.30;67.00;;;;;;5115895;28;20052;-72
2022/08/23 03:03:17;;;;;;;11.82;8.00;;;19.30;67.20;;;;;;5117011;28;20024;-72
2022/08/23 03:05:44;;;;;;;11.65;8.55;;;19.20;67.70;;;;;;5116811;28;20023;-72
2022/08/23 03:08:10;;;;;;;11.95;8.43;;;19.20;68.30;;;;;;5116782;28;20028;-72
2022/08/23 03:10:37;;;;;;;11.98;8.63;;;19.20;68.20;;;;;;5116468;28;20044;-72
2022/08/23 03:13:03;;;;;;;11.15;8.38;;;19.20;68.20;;;;;;5116777;28;20028;-72
2022/08/23 03:15:28;;;;;;;11.55;8.82;;;19.10;68.30;;;;;;5116629;28;20043;-72
2022/08/23 03:17:54;;;;;;;11.02;8.35;;;19.20;68.20;;;;;;5116579;28;20036;-72
2022/08/23 03:20:20;;;;;;;11.90;8.10;;;19.30;67.90;;;;;;5116535;28;20020;-72
2022/08/23 03:22:46;;;;;;;12.30;7.35;;;19.40;67.60;;;;;;5116537;28;20438;-72
2022/08/23 03:25:12;;;;;;;13.23;8.35;;;19.40;67.20;;;;;;5116460;28;20032;-72
2022/08/23 03:27:37;;;;;;;12.98;7.72;;;19.10;67.00;;;;;;5116405;28;20060;-72
2022/08/23 03:30:05;;;;;;;11.60;8.15;;;18.90;67.60;;;;;;5116279;28;20020;-72
2022/08/23 03:32:30;;;;;;;12.32;8.35;;;18.80;68.30;;;;;;5116230;28;20031;-72
2022/08/23 03:34:56;;;;;;;11.20;8.43;;;18.80;68.40;;;;;;5116242;28;20024;-72
2022/08/23 03:37:23;;;;;;;12.90;8.73;;;18.90;68.40;;;;;;5116360;28;20028;-72
2022/08/23 03:39:48;;;;;;;12.20;7.93;;;19.00;68.20;;;;;;5116157;28;20073;-72
2022/08/23 03:42:15;;;;;;;10.00;7.03;;;19.10;67.60;;;;;;5116224;28;20031;-72
2022/08/23 03:44:40;;;;;;;13.30;7.22;;;19.00;67.50;;;;;;5116099;28;20047;-72
2022/08/23 03:47:06;;;;;;;9.48;7.05;;;19.00;66.50;;;;;;5116002;28;20441;-72
2022/08/23 03:49:32;;;;;;;9.98;6.78;;;19.00;66.90;;;;;;5116027;28;20020;-72
2022/08/23 03:51:59;;;;;;;10.27;7.20;;;19.00;66.90;;;;;;5115833;28;20024;-72
2022/08/23 03:54:25;;;;;;;12.75;8.32;;;19.10;67.10;;;;;;5115888;28;20027;-72
2022/08/23 03:56:54;;;;;;;13.50;8.25;;;19.10;67.20;;;;;;5115831;28;20035;-72
2022/08/23 03:59:20;;;;;;;11.15;7.95;;;19.00;67.60;;;;;;5115785;28;20028;-72
2022/08/23 04:01:45;;;;;;;16.00;8.55;;;19.10;67.90;;;;;;5115717;28;20028;-72
2022/08/23 04:04:11;;;;;;;11.25;8.60;;;19.10;67.90;;;;;;5115712;28;20069;-72
2022/08/23 04:06:37;;;;;;;12.63;8.20;;;19.10;67.70;;;;;;5115639;28;20039;-72
2022/08/23 04:09:03;;;;;;;12.95;8.25;;;19.10;67.70;;;;;;5115623;28;20025;-72
2022/08/23 04:11:29;;;;;;;12.93;7.82;;;19.00;67.70;;;;;;5114730;28;20044;-72
2022/08/23 04:13:54;;;;;;;11.38;8.23;;;19.10;68.10;;;;;;5115509;28;20024;-72
2022/08/23 04:16:21;;;;;;;11.15;8.35;;;19.10;68.20;;;;;;5114498;28;20031;-72
2022/08/23 04:18:47;;;;;;;12.02;8.27;;;19.10;68.30;;;;;;5114413;28;20032;-72
2022/08/23 04:21:16;;;;;;;12.75;8.10;;;19.10;68.60;;;;;;5115502;28;20364;-72
2022/08/23 04:23:42;;;;;;;14.57;8.63;;;19.10;68.60;;;;;;5115326;28;20020;-72
2022/08/23 04:26:08;;;;;;;13.65;8.75;;;19.20;68.40;;;;;;5115257;28;20040;-72
2022/08/23 04:28:34;;;;;;;11.52;8.43;;;19.30;68.30;;;;;;5115138;28;20062;-72
2022/08/23 04:31:01;;;;;;;13.88;8.48;;;19.20;68.30;;;;;;5115051;28;20032;-72
2022/08/23 04:33:27;;;;;;;14.43;8.57;;;19.20;68.30;;;;;;5115257;28;20048;-72
2022/08/23 04:35:53;;;;;;;13.80;9.23;;;19.20;68.40;;;;;;5115066;28;20080;-72
2022/08/23 04:38:19;;;;;;;13.65;9.00;;;19.30;68.80;;;;;;5115046;28;20027;-72
2022/08/23 04:43:29;;;;;;;12.27;8.43;;;19.10;68.70;;;;;;5115040;28;20035;-72
2022/08/23 04:45:55;;;;;;;14.82;8.57;;;19.10;69.00;;;;;;5114874;28;20020;-72
2022/08/23 04:48:22;;;;;;;12.05;8.90;;;19.10;69.20;;;;;;5114834;28;20016;-72
2022/08/23 04:50:47;;;;;;;11.20;8.57;;;19.10;69.40;;;;;;5114766;28;20024;-72
2022/08/23 04:53:13;;;;;;;10.73;8.10;;;19.20;69.20;;;;;;5113679;28;20226;-72
2022/08/23 04:55:39;;;;;;;12.20;8.65;;;19.30;68.80;;;;;;5114672;28;20028;-72
2022/08/23 04:58:05;;;;;;;12.63;8.82;;;19.30;68.80;;;;;;5114632;28;20025;-72
2022/08/23 05:00:31;;;;;;;13.93;8.90;;;19.30;68.80;;;;;;5114604;28;20521;-72
2022/08/23 05:02:57;;;;;;;14.60;9.60;;;19.20;68.90;;;;;;5114677;28;20031;-72
2022/08/23 05:05:22;;;;;;;15.10;8.82;;;19.20;69.00;;;;;;5114493;28;20032;-72
2022/08/23 05:07:48;;;;;;;15.77;8.93;;;19.20;69.10;;;;;;5114453;28;20039;-72
2022/08/23 05:10:15;;;;;;;14.88;8.95;;;19.20;69.10;;;;;;5114235;28;20062;-73
2022/08/23 05:12:41;;;;;;;12.85;9.30;;;19.10;69.20;;;;;;5114347;28;20036;-72
2022/08/23 05:15:11;;;;;;;14.30;9.23;;;19.10;69.70;;;;;;5114317;28;20435;-72
2022/08/23 05:17:37;;;;;;;14.38;10.02;;;19.10;69.70;;;;;;5114267;28;20025;-72
2022/08/23 05:20:07;;;;;;;14.82;9.25;;;19.20;69.60;;;;;;5114199;28;20016;-72
2022/08/23 05:22:34;;;;;;;15.52;9.35;;;19.30;69.50;;;;;;5113423;28;20031;-72
2022/08/23 05:24:59;;;;;;;12.85;9.02;;;19.20;69.80;;;;;;5113144;28;20100;-72
2022/08/23 05:27:25;;;;;;;13.07;9.90;;;19.10;70.30;;;;;;5113200;28;20028;-72
2022/08/23 05:29:53;;;;;;;12.73;9.80;;;19.10;70.50;;;;;;5114015;28;20044;-72
2022/08/23 05:32:19;;;;;;;16.17;10.43;;;19.30;71.40;;;;;;5113934;28;20042;-72
2022/08/23 05:34:45;;;;;;;15.70;11.15;;;19.40;70.40;;;;;;5114011;28;20025;-72
2022/08/23 05:37:11;;;;;;;15.82;10.70;;;19.40;70.60;;;;;;5113945;28;20027;-72
2022/08/23 05:39:37;;;;;;;22.42;12.13;;;19.30;70.80;;;;;;5113919;28;20043;-72
2022/08/23 05:42:05;;;;;;;20.08;12.15;;;19.40;71.10;;;;;;5113858;28;20035;-72
2022/08/23 05:44:30;;;;;;;19.20;11.82;;;19.30;71.30;;;;;;5113881;28;20030;-72
2022/08/23 05:46:56;;;;;;;16.25;11.90;;;19.40;71.60;;;;;;5113766;28;20028;-72
2022/08/23 05:49:22;;;;;;;17.25;11.65;;;19.50;71.50;;;;;;5113758;28;20024;-72
2022/08/23 05:51:47;;;;;;;17.85;12.50;;;19.50;71.60;;;;;;5113673;28;20107;-72
2022/08/23 05:54:13;;;;;;;17.83;11.75;;;19.60;71.80;;;;;;5113707;28;20143;-72
2022/08/23 05:56:41;;;;;;;18.55;12.65;;;19.60;71.70;;;;;;5113660;28;20021;-72
2022/08/23 05:59:10;;;;;;;17.05;12.68;;;19.60;71.70;;;;;;5112701;28;20035;-72
2022/08/23 06:01:36;;;;;;;18.33;12.68;;;19.70;71.60;;;;;;5113599;28;20020;-72
2022/08/23 06:04:04;;;;;;;17.55;13.50;;;19.70;71.30;;;;;;5113555;28;20035;-72
2022/08/23 06:06:30;;;;;;;16.70;12.85;;;19.80;71.20;;;;;;5113557;28;20028;-72
2022/08/23 06:08:57;;;;;;;19.13;13.32;;;19.90;71.10;;;;;;5113553;28;20091;-72
2022/08/23 06:11:25;;;;;;;18.63;13.13;;;19.90;71.00;;;;;;5113261;28;20044;-72
2022/08/23 06:13:54;;;;;;;18.58;13.95;;;20.00;71.00;;;;;;5113533;28;20012;-72
2022/08/23 06:16:23;;;;;;;20.77;14.57;;;20.00;71.00;;;;;;5113483;28;20020;-72
2022/08/23 06:18:50;;;;;;;19.50;13.68;;;20.00;71.40;;;;;;5113472;28;20020;-72
2022/08/23 06:21:17;;;;;;;22.52;15.13;;;20.10;71.40;;;;;;5113453;28;20036;-72
2022/08/23 06:23:45;;;;;;;22.13;15.15;;;20.00;71.60;;;;;;5113432;28;20024;-72
2022/08/23 06:26:13;;;;;;;19.45;13.57;;;20.10;71.50;;;;;;5113370;28;20054;-72
2022/08/23 06:28:40;;;;;;;19.58;14.45;;;20.10;71.30;;;;;;5113309;28;20080;-72
2022/08/23 06:31:06;;;;;;;21.65;15.23;;;20.20;71.80;;;;;;5113262;28;20024;-72
2022/08/23 06:33:32;;;;;;;22.08;15.88;;;20.30;71.50;;;;;;5113550;28;20016;-72
2022/08/23 06:36:12;;;;;;;20.88;14.55;;;20.40;71.10;;;;;;5117419;28;20046;-72
2022/08/23 06:38:40;;;;;;;20.08;14.82;;;20.40;71.00;;;;;;5117402;28;20020;-73
2022/08/23 06:41:09;;;;;;;24.73;15.60;;;20.50;71.00;;;;;;5117328;28;20073;-72
2022/08/23 06:43:35;;;;;;;22.08;15.15;;;20.60;71.10;;;;;;5117277;28;20013;-72
2022/08/23 06:46:15;;;;;;;22.05;15.57;;;20.60;70.80;;;;;;5117248;28;20027;-72
2022/08/23 06:48:42;;;;;;;20.30;14.63;;;20.70;69.50;;;;;;5117220;28;20027;-72
2022/08/23 06:51:24;;;;;;;18.17;14.63;;;20.70;69.10;;;;;;5116026;28;20027;-72
2022/08/23 06:53:54;;;;;;;22.02;14.75;;;20.70;69.20;;;;;;5117152;28;20079;-72
2022/08/23 06:56:21;;;;;;;22.83;15.15;;;20.70;69.10;;;;;;5117034;28;20023;-72
2022/08/23 06:58:47;;;;;;;23.08;16.13;;;20.70;69.00;;;;;;5116961;28;20083;-72
2022/08/23 07:01:28;;;;;;;26.00;16.08;;;20.80;68.30;;;;;;5116939;28;20054;-72
2022/08/23 07:03:54;;;;;;;20.65;15.18;;;20.90;69.20;;;;;;5117087;28;20035;-72
2022/08/23 07:06:25;;;;;;;21.63;15.52;;;20.90;69.10;;;;;;5116849;28;20024;-72
2022/08/23 07:08:51;;;;;;;25.17;14.25;;;21.00;69.10;;;;;;5116782;28;20028;-72
2022/08/23 07:11:18;;;;;;;22.42;15.40;;;21.00;68.70;;;;;;5115528;28;20047;-72
2022/08/23 07:13:43;;;;;;;21.48;14.48;;;21.00;68.50;;;;;;5116691;28;20066;-72
2022/08/23 07:16:09;;;;;;;21.70;15.70;;;21.10;68.40;;;;;;5115762;28;20032;-72
2022/08/23 07:18:35;;;;;;;20.88;16.15;;;21.20;68.70;;;;;;5116612;28;20020;-72
2022/08/23 07:21:02;;;;;;;22.55;15.60;;;21.30;68.30;;;;;;5115647;28;20047;-72
2022/08/23 07:23:33;;;;;;;21.38;14.55;;;21.40;68.30;;;;;;5116528;28;20012;-72
2022/08/23 07:26:00;;;;;;;21.80;15.70;;;21.50;68.10;;;;;;5116534;28;20016;-72
2022/08/23 07:28:27;;;;;;;22.48;15.23;;;21.60;67.80;;;;;;5116299;28;20024;-72
2022/08/23 07:30:54;;;;;;;22.92;14.35;;;21.60;67.70;;;;;;5116377;28;20050;-72
2022/08/23 07:33:20;;;;;;;21.85;13.70;;;21.70;66.60;;;;;;5116247;28;20028;-72
2022/08/23 07:35:50;;;;;;;19.00;12.82;;;21.80;66.20;;;;;;5116295;28;20020;-72
2022/08/23 07:38:16;;;;;;;21.38;11.73;;;21.90;65.90;;;;;;5116205;28;20020;-72
2022/08/23 07:40:43;;;;;;;14.70;11.82;;;22.00;65.80;;;;;;5116178;28;20020;-72
2022/08/23 07:43:10;;;;;;;16.60;11.93;;;22.00;65.30;;;;;;5116136;28;20109;-72
2022/08/23 07:45:37;;;;;;;14.55;9.68;;;22.10;65.10;;;;;;5115127;28;20089;-72
2022/08/23 07:48:04;;;;;;;15.60;11.15;;;22.20;63.60;;;;;;5116032;28;20044;-72
2022/08/23 07:50:29;;;;;;;20.40;10.93;;;22.30;63.40;;;;;;5115962;28;20060;-72
2022/08/23 07:52:55;;;;;;;19.08;12.80;;;22.40;62.90;;;;;;5115887;28;20032;-72
2022/08/23 07:55:21;;;;;;;17.13;11.73;;;22.50;62.40;;;;;;5115918;28;20021;-72
2022/08/23 07:57:47;;;;;;;17.95;12.68;;;22.60;62.60;;;;;;5115840;28;20029;-72
2022/08/23 08:00:13;;;;;;;20.42;12.65;;;22.70;62.30;;;;;;5115854;28;20084;-72
2022/08/23 08:02:39;;;;;;;18.65;12.38;;;22.80;62.40;;;;;;5115767;28;20024;-72
2022/08/23 08:05:05;;;;;;;18.10;12.35;;;22.80;61.70;;;;;;5114850;28;20032;-72
2022/08/23 08:07:33;;;;;;;22.40;12.05;;;22.80;61.60;;;;;;5114731;28;20092;-72
2022/08/23 08:09:58;;;;;;;19.33;11.95;;;22.90;61.40;;;;;;5114814;28;20051;-72
2022/08/23 08:12:25;;;;;;;20.60;13.02;;;23.00;61.60;;;;;;5115309;28;20051;-72
2022/08/23 08:14:51;;;;;;;19.88;12.63;;;23.00;62.00;;;;;;5115526;28;20043;-72
2022/08/23 08:17:18;;;;;;;21.33;13.23;;;23.10;61.60;;;;;;5115516;28;20016;-72
2022/08/23 08:19:43;;;;;;;18.48;12.98;;;23.20;61.50;;;;;;5115464;28;20024;-72
2022/08/23 08:22:09;;;;;;;25.42;13.82;;;23.30;60.90;;;;;;5115367;28;20024;-72
2022/08/23 08:24:35;;;;;;;19.42;13.88;;;23.40;61.00;;;;;;5115338;28;20028;-72
2022/08/23 08:27:00;;;;;;;25.35;14.95;;;23.40;60.40;;;;;;5115289;28;20036;-72
2022/08/23 08:29:26;;;;;;;19.63;14.00;;;23.50;60.30;;;;;;5115111;28;20032;-72
2022/08/23 08:31:52;;;;;;;28.67;16.10;;;23.60;60.30;;;;;;5115253;28;20028;-72
2022/08/23 08:34:17;;;;;;;30.02;19.05;;;23.70;60.50;;;;;;5115150;28;20031;-72
2022/08/23 08:36:46;;;;;;;29.38;17.88;;;23.80;59.20;;;;;;5115074;28;20028;-72
2022/08/23 08:39:20;;;;;;;27.52;18.92;;;23.80;59.10;;;;;;5115051;28;20031;-72
2022/08/23 08:42:18;;;;;;;25.70;17.75;;;23.80;58.60;;;;;;5115041;28;20048;-72
2022/08/23 08:44:55;;;;;;;22.58;17.15;;;24.00;59.00;;;;;;5113421;28;20035;-72
2022/08/23 08:47:24;;;;;;;24.67;16.45;;;24.00;58.70;;;;;;5114946;28;20024;-73
2022/08/23 08:50:14;;;;;;;24.92;16.90;;;24.10;59.40;;;;;;5114839;28;20032;-73
2022/08/23 08:52:44;;;;;;;22.40;15.52;;;24.10;59.60;;;;;;5113756;28;20051;-72
2022/08/23 08:55:19;;;;;;;24.77;15.07;;;24.10;59.20;;;;;;5113796;28;20091;-72
2022/08/23 08:57:48;;;;;;;19.60;14.65;;;24.10;59.00;;;;;;5114623;28;20047;-73
2022/08/23 09:00:18;;;;;;;19.65;14.55;;;24.20;59.30;;;;;;5114659;28;20110;-72
2022/08/23 09:02:44;;;;;;;18.08;12.40;;;24.30;60.40;;;;;;5113613;28;20047;-72
2022/08/23 09:05:13;;;;;;;22.23;12.95;;;24.30;58.50;;;;;;5114518;28;20024;-72
2022/08/23 09:07:43;;;;;;;23.00;13.48;;;24.40;58.00;;;;;;5114475;28;20103;-72
2022/08/23 09:10:20;;;;;;;18.02;13.15;;;24.30;57.40;;;;;;5114293;28;20085;-72
2022/08/23 09:13:15;;;;;;;19.25;12.65;;;24.30;57.10;;;;;;5114507;28;20084;-72
2022/08/23 09:15:44;;;;;;;18.58;13.48;;;24.40;57.40;;;;;;5113321;28;20070;-72
2022/08/23 09:18:12;;;;;;;23.45;13.93;;;24.40;57.80;;;;;;5114335;28;20020;-72
2022/08/23 09:20:40;;;;;;;18.65;13.02;;;24.30;58.00;;;;;;5114267;28;20107;-72
2022/08/23 09:23:19;;;;;;;20.80;12.95;;;24.50;57.70;;;;;;5114187;28;20028;-72
2022/08/23 09:25:59;;;;;;;23.80;13.73;;;24.50;58.60;;;;;;5114233;28;20035;-72
2022/08/23 09:28:28;;;;;;;21.85;12.90;;;24.50;58.50;;;;;;5114206;28;20024;-72
2022/08/23 09:30:56;;;;;;;19.90;12.73;;;24.60;58.50;;;;;;5113202;28;20046;-72
2022/08/23 09:33:44;;;;;;;23.42;14.30;;;24.60;57.60;;;;;;5113996;28;20031;-72
2022/08/23 09:36:30;;;;;;;21.90;13.95;;;24.70;59.00;;;;;;5114033;28;20051;-72
2022/08/23 09:39:00;;;;;;;20.75;13.82;;;24.80;57.30;;;;;;5113977;28;20016;-72
2022/08/23 09:41:31;;;;;;;23.92;13.82;;;24.90;57.60;;;;;;5113951;28;20028;-72
2022/08/23 09:44:00;;;;;;;22.02;13.82;;;25.00;58.00;;;;;;5113900;28;20016;-72
2022/08/23 09:46:38;;;;;;;23.50;13.40;;;25.10;58.80;;;;;;5113967;28;20036;-72
2022/08/23 09:49:22;;;;;;;19.85;11.93;;;25.10;57.00;;;;;;5113976;28;20062;-72
2022/08/23 09:51:49;;;;;;;15.57;11.25;;;25.20;56.20;;;;;;5113676;28;20421;-72
2022/08/23 09:54:33;;;;;;;16.42;11.93;;;25.30;56.20;;;;;;5113711;28;20031;-72
2022/08/23 09:57:04;;;;;;;18.70;12.00;;;25.50;56.20;;;;;;5113869;28;20024;-72
2022/08/23 09:59:33;;;;;;;16.15;10.50;;;25.60;56.10;;;;;;5113717;28;20016;-72
2022/08/23 10:02:00;;;;;;;15.68;10.32;;;25.80;55.80;;;;;;5113672;28;20028;-72
2022/08/23 10:04:38;;;;;;;11.80;7.47;;;25.80;55.20;;;;;;5095827;28;20092;-72
2022/08/23 10:07:39;;;;;;;7.07;4.90;;;26.00;54.70;;;;;;5112835;28;20061;-72
2022/08/23 10:10:24;;;;;;;10.73;4.88;;;26.00;51.60;;;;;;5112944;28;20031;-72
2022/08/23 10:12:52;;;;;;;5.72;3.90;;;26.00;49.00;;;;;;5113491;28;20032;-72
2022/08/23 10:15:24;;;;;;;7.90;4.05;;;26.10;50.50;;;;;;5113398;28;20026;-72
2022/08/23 10:18:06;;;;;;;8.82;4.55;;;26.20;51.00;;;;;;5112587;28;20020;-72
2022/08/23 10:20:36;;;;;;;10.52;5.15;;;26.20;48.80;;;;;;5113439;28;20016;-73
2022/08/23 10:23:27;;;;;;;13.15;5.32;;;26.30;49.40;;;;;;5112510;28;20046;-72
2022/08/23 10:26:00;;;;;;;10.52;5.55;;;26.50;49.80;;;;;;5113463;28;20056;-73
2022/08/23 10:31:43;;;;;;;8.02;4.72;;;26.70;49.40;;;;;;5113508;28;20044;-72
2022/08/23 10:34:24;;;;;;;11.73;4.90;;;26.80;48.50;;;;;;5113383;28;20024;-72
2022/08/23 10:37:14;;;;;;;8.70;3.55;;;26.90;49.40;;;;;;5113323;28;20020;-72
2022/08/23 10:40:15;;;;;;;5.57;3.38;;;27.00;49.40;;;;;;5112302;28;20024;-72
2022/08/23 10:43:24;;;;;;;10.20;4.93;;;27.10;47.00;;;;;;5095683;28;20063;-72
2022/08/23 10:45:52;;;;;;;11.07;4.43;;;27.10;47.00;;;;;;5107074;28;20035;-72
2022/08/23 10:48:29;;;;;;;7.65;3.60;;;27.10;47.90;;;;;;5113206;28;20024;-72
2022/08/23 10:51:02;;;;;;;6.60;3.03;;;27.30;47.40;;;;;;5113248;28;20016;-72
2022/08/23 10:53:33;;;;;;;9.68;4.22;;;27.40;45.60;;;;;;5112133;28;20033;-72
2022/08/23 10:56:01;;;;;;;6.32;3.08;;;27.30;46.50;;;;;;5113214;28;20024;-72
2022/08/23 10:58:42;;;;;;;8.70;3.13;;;27.40;47.10;;;;;;5113077;28;20027;-72
2022/08/23 11:01:11;;;;;;;6.25;3.10;;;27.50;46.00;;;;;;5113148;28;20408;-72
2022/08/23 11:03:51;;;;;;;6.53;2.85;;;27.60;45.60;;;;;;5113022;28;20016;-72
2022/08/23 11:06:35;;;;;;;4.95;3.05;;;27.70;45.60;;;;;;5113100;28;20035;-72
2022/08/23 11:09:03;;;;;;;5.30;2.80;;;27.70;43.50;;;;;;5112999;28;20024;-72
2022/08/23 11:11:45;;;;;;;5.97;2.70;;;27.80;44.10;;;;;;5112719;28;20044;-72
2022/08/23 11:14:32;;;;;;;5.18;2.42;;;27.90;44.30;;;;;;5113016;28;20012;-72
2022/08/23 11:17:07;;;;;;;4.22;2.70;;;27.90;44.20;;;;;;5112937;28;20017;-72
2022/08/23 11:19:55;;;;;;;7.35;2.70;;;27.90;43.40;;;;;;5112932;28;20077;-72
2022/08/23 11:22:25;;;;;;;7.18;2.88;;;27.90;44.50;;;;;;5115153;28;20023;-72
2022/08/23 11:24:56;;;;;;;7.65;3.30;;;27.90;45.10;;;;;;5116581;28;20027;-72
2022/08/23 11:27:35;;;;;;;8.52;4.20;;;28.00;45.00;;;;;;5116505;28;20031;-72
2022/08/23 11:30:35;;;;;;;6.13;4.00;;;28.00;44.40;;;;;;5116390;28;20055;-72
2022/08/23 11:33:10;;;;;;;8.57;3.90;;;28.00;44.50;;;;;;5115361;28;20031;-72
2022/08/23 11:35:43;;;;;;;7.50;3.90;;;28.00;44.30;;;;;;5116316;28;20027;-72
2022/08/23 11:38:10;;;;;;;5.93;3.42;;;28.10;44.30;;;;;;5116413;28;20012;-72
2022/08/23 11:40:40;;;;;;;6.13;3.30;;;28.20;45.10;;;;;;5116263;28;20024;-72
2022/08/23 11:43:20;;;;;;;4.93;3.08;;;28.30;43.90;;;;;;5116341;28;20024;-72
2022/08/23 11:45:47;;;;;;;8.10;3.08;;;28.30;44.30;;;;;;5116151;28;20032;-73
2022/08/23 11:48:36;;;;;;;5.25;2.70;;;28.50;44.00;;;;;;5116070;28;20024;-72
2022/08/23 11:51:08;;;;;;;4.82;2.88;;;28.60;43.30;;;;;;5116033;28;20024;-73
2022/08/23 11:54:21;;;;;;;6.18;3.08;;;28.60;42.20;;;;;;5116162;28;20024;-72
2022/08/23 11:57:08;;;;;;;6.97;3.78;;;28.50;43.40;;;;;;5103547;28;20107;-72
2022/08/23 11:59:42;;;;;;;6.25;3.40;;;28.60;43.00;;;;;;5114827;28;20028;-72
2022/08/23 12:02:39;;;;;;;5.97;3.13;;;28.70;43.30;;;;;;5115965;28;20063;-72
2022/08/23 12:05:31;;;;;;;6.00;3.40;;;28.80;42.90;;;;;;5114806;28;20042;-72
2022/08/23 12:08:02;;;;;;;9.75;2.58;;;28.90;42.40;;;;;;5115769;28;20020;-72
2022/08/23 12:10:39;;;;;;;5.82;2.42;;;29.00;42.80;;;;;;5115475;28;20036;-72
2022/08/23 12:13:17;;;;;;;5.20;2.72;;;28.90;41.60;;;;;;5115688;28;20036;-72
2022/08/23 12:16:18;;;;;;;6.22;2.50;;;28.90;42.30;;;;;;5115526;28;20043;-72
2022/08/23 12:18:51;;;;;;;6.55;2.60;;;28.90;42.40;;;;;;5115483;28;20111;-72
2022/08/23 12:21:22;;;;;;;5.05;2.50;;;28.90;42.90;;;;;;5115420;28;20020;-72
2022/08/23 12:23:52;;;;;;;7.53;2.80;;;28.90;41.10;;;;;;5115393;28;20448;-72
2022/08/23 12:26:36;;;;;;;5.82;2.38;;;29.00;42.70;;;;;;5114461;28;20045;-72
2022/08/23 12:29:16;;;;;;;4.97;2.38;;;29.10;42.20;;;;;;5115371;28;20028;-72
2022/08/23 12:32:00;;;;;;;5.38;2.20;;;29.00;40.90;;;;;;5114755;28;20024;-72
2022/08/23 12:34:31;;;;;;;7.30;2.55;;;28.90;41.60;;;;;;5115190;28;20048;-72
2022/08/23 12:37:24;;;;;;;2.72;2.35;;;28.80;41.60;;;;;;5114147;28;20060;-72
2022/08/23 12:39:53;;;;;;;5.95;2.42;;;28.60;41.50;;;;;;5114791;28;20115;-72
2022/08/23 12:42:29;;;;;;;4.63;2.35;;;28.50;42.70;;;;;;5114059;28;20016;-72
2022/08/23 12:45:05;;;;;;;5.50;2.40;;;28.50;42.70;;;;;;5113977;28;20042;-72
2022/08/23 12:47:32;;;;;;;5.30;2.10;;;28.40;42.40;;;;;;5115081;28;20030;-72
2022/08/23 12:50:03;;;;;;;7.32;2.45;;;28.40;42.70;;;;;;5114897;28;20044;-72
2022/08/23 12:52:33;;;;;;;5.03;2.67;;;28.40;43.40;;;;;;5114951;28;20031;-72
2022/08/23 12:55:00;;;;;;;7.82;2.65;;;28.40;42.10;;;;;;5114815;28;20020;-72
2022/08/23 12:57:38;;;;;;;5.40;2.13;;;28.40;42.70;;;;;;5114706;28;20024;-72
2022/08/23 13:00:16;;;;;;;5.97;2.22;;;28.50;44.10;;;;;;5114705;28;20027;-73
2022/08/23 13:02:48;;;;;;;3.80;2.08;;;28.70;42.80;;;;;;5114678;28;20024;-72
2022/08/23 13:05:31;;;;;;;3.38;2.00;;;28.90;42.40;;;;;;5114624;28;20028;-72